Valentín Vidal

Olheiro-Chefe - Belgrano
3 Abr 2027
Sábado
Processo

Personalidade

Adaptabilidade (7) Ambição (10) Controvérsia (1) Lealdade (18) Pressão (3) Profissionalismo (1) Espírito Esportivo (10) Temperamento (1)

Perfil

Estilo de Treinamento Democrático
Licença Continental Pro
Determinação 13
Gestão de Pessoas 5
Motivação 12
Disciplina 9
Satisfação no Trabalho
100%
Fadiga
0%
Função Olheiro-Chefe
Salário 55.5K p/s
Contrato 14.03.2028

Desempenho

Comportamento Bom
Eficácia do Treinamento
49%
Desenvolvimento do Jogador
20%
Prevenção de Lesões
50%
Implementação Tática
55%

Eventos Recentes

Avaliou um jogador agora
Participou de uma reunião de recrutamento agora
Participou de uma reunião de recrutamento agora
Participou de uma reunião de recrutamento agora
Avaliou um jogador agora
Avaliou um jogador 7d atrás
Avaliou um jogador 7d atrás
Observou uma partida 7d atrás

Monitorando agora

240
Jogador Clube Status Habilidade Confiança Observado Última observação Último voto
David Kalokoh Ajax Ativo 111 / 114 40% 4 01.04.2027 -
Jhon Aponza Boca Juniors Ativo 108 / 113 40% 1 01.04.2027 -
Yacine Goudjil MC Oran Ativo 103 / 98 40% 1 01.04.2027 -
Oumar Camara Vitoria Guimaraes Ativo 116 / 130 40% 9 31.03.2027 -
Dimitrij Bayramov AZAL Ativo 91 / 77 40% 2 31.03.2027 -
Donnell McNeilly Nottingham Forest Ativo 115 / 123 40% 5 31.03.2027 -
Nicolás Azambuja Danubio Ativo 116 / 126 40% 2 30.03.2027 -
Mateus Mané Manchester United Ativo 133 / 141 40% 2 30.03.2027 -
Adnan Courtois KV Oostende Ativo 123 / 124 40% 11 29.03.2027 -
Sindre Walle Egeli Tottenham Ativo 135 / 131 40% 2 29.03.2027 -
Rodrigo Villalba Libertad Ativo 96 / 95 40% 2 25.03.2027 -
Karem Zoabi Torreense Ativo 94 / 102 40% 3 25.03.2027 -
Juan Méndez Mineros de Guayana Ativo 82 / 97 40% 1 25.03.2027 -
Uriël Van Aalst Willem II Ativo 95 / 122 40% 2 24.03.2027 -
Mathías González Ermis Ativo 89 / 87 40% 1 24.03.2027 -
Luis Fernando Santa Clara Ativo 102 / 97 40% 2 22.03.2027 -
Ignacio Gamarra Port Vale Ativo 82 / 84 40% 1 22.03.2027 -
Enrique Almeida Cerro Largo Ativo 98 / 98 40% 1 22.03.2027 -
Alex Valencia Santos Laguna Ativo 76 / 87 40% 3 20.03.2027 -
Ognjen Bondžulić Mladost Lucani Ativo 95 / 105 40% 4 19.03.2027 -
Luca Maiorano Waasland-Beveren Ativo 87 / 96 40% 2 18.03.2027 -
Santiago Sandoval Guadalajara Ativo 89 / 102 40% 1 18.03.2027 -
Ruslan Myalkovskiy Lokomotiv Moscow Ativo 88 / 97 40% 2 17.03.2027 -
Andrey Domotsev Mashuk Ativo 92 / 89 40% 1 17.03.2027 -
Thomas Waddingham Portsmouth Ativo 114 / 122 40% 1 16.03.2027 -
Uchenna Ogundu FC Augsburg Ativo 117 / 141 40% 1 16.03.2027 -
Hassan Beja AFC Leopards Ativo 73 / 82 40% 1 15.03.2027 -
Joaquín Moxica Leyton Orient Ativo 97 / 100 40% 3 10.03.2027 -
Noah Mokhtari Stade Brestois Ativo 102 / 88 40% 3 10.03.2027 -
Angelos Neofytou Omonoia Ativo 85 / 89 40% 1 10.03.2027 -
Oscar Acuña Libertad Ativo 93 / 101 40% 2 09.03.2027 -
Sifiso Dala Platinum Stars Ativo 95 / 86 40% 2 05.03.2027 -
Alexey Batrakov Galatasaray Ativo 152 / 151 40% 2 05.03.2027 -
Anestis Mythou PAOK Ativo 86 / 94 40% 1 04.03.2027 -
Daniel Osorio Llaneros Ativo 97 / 105 40% 1 04.03.2027 -
Alex Woiski Deportivo Tachira Ativo 86 / 105 40% 3 28.02.2027 -
Jonás Luna Osasuna Ativo 116 / 131 40% 1 27.02.2027 -
Vladislav Nahrudnyy Ternana Ativo 91 / 97 40% 1 27.02.2027 -
Alan Torterolo Defensor Sporting Ativo 91 / 94 40% 2 26.02.2027 -
Juan Rodríguez Wanderers Ativo 86 / 93 40% 1 26.02.2027 -
Evagoras Charalabous Anorthosis Ativo 101 / 87 40% 1 24.02.2027 -
Tomasz Walczak MFK Michalovce Ativo 102 / 90 40% 1 24.02.2027 -
Yannik Wagner Heidenheim Ativo 97 / 105 40% 2 23.02.2027 -
Agustín Ruberto River Plate Ativo 120 / 128 40% 2 23.02.2027 -
Nathan Mbala FC Metz Ativo 103 / 92 40% 1 19.02.2027 -
Roberto Iliev Slavia Sofia Ativo 88 / 91 40% 1 16.02.2027 -
Prince Chibuzor Emmanuel Zlin Ativo 75 / 100 40% 1 16.02.2027 -
Rodrigo Dudok Racing Ativo 90 / 92 40% 2 12.02.2027 -
Pablo Suárez Rentistas Ativo 90 / 95 40% 1 12.02.2027 -
Manuel Rodríguez Millonarios Ativo 93 / 86 40% 1 12.02.2027 -
Nicolò Lari Vis Pesaro Ativo 97 / 83 40% 2 09.02.2027 -
Jonathan Acquah WAFA Ativo 75 / 79 40% 1 06.02.2027 -
Luke Skinner Bristol City Ativo 94 / 92 40% 1 06.02.2027 -
Dramane Kamagaté USM Alger Ativo 102 / 106 40% 1 04.02.2027 -
Harry Ashfield Wrexham Ativo 88 / 108 40% 1 03.02.2027 -
Danil Glebov Dinamo Moscow Ativo 139 / 133 40% 1 28.12.2026 -
Volodymyr Brazhko Dynamo Kyiv Ativo 121 / 119 40% 1 28.12.2026 -
Rubens Dinamo Moscow Ativo 137 / 136 40% 1 28.12.2026 -
Nicolás Sumavil Platense Ativo 125 / 115 40% 2 14.12.2026 -
Pontus Dahlberg Lillestrom Ativo 109 / 106 40% 1 14.12.2026 -
Sampson Dweh Viktoria Plzen Perdido 133 / 134 66% 1 01.12.2026 -
Federico Pereira Toluca Perdido 135 / 135 68% 1 01.12.2026 Aprovar
Bruno Caicedo Vancouver Whitecaps Ativo 107 / 120 40% 1 01.12.2026 -
Jalal Abdullai Molde Ativo 109 / 119 40% 1 01.12.2026 -
John Pulskamp Sporting Kansas City Ativo 117 / 104 40% 2 30.11.2026 -
Peter Shalulile Mamelodi Sundowns Perdido 140 / 120 40% 2 29.11.2026 -
Gonzalo Plata Dinamo Moscow Ativo 142 / 137 40% 2 29.11.2026 -
Itumeleng Tau Ajax Cape Town Ativo 113 / 128 40% 3 28.11.2026 -
Exequiel Zeballos Boca Juniors Ativo 125 / 136 40% 4 28.11.2026 -
Rivaldo Ngcobo Free State Stars Ativo 99 / 112 40% 2 28.11.2026 -
Martín Ojeda Orlando City Ativo 144 / 134 40% 1 27.11.2026 -
Franko Kovačević Ferencvaros Ativo 127 / 126 40% 1 27.11.2026 -
Rodin Quiñónes Dinamo Batumi Ativo 109 / 110 40% 3 26.11.2026 -
Jhonathan Caicedo Arda Ativo 91 / 113 40% 2 26.11.2026 -
Stav Toriel Hapoel Tel Aviv Ativo 129 / 115 40% 1 26.11.2026 -
Everton Bala Levski Ativo 126 / 113 40% 1 25.11.2026 -
Sergio González Bunyodkor Ativo 120 / 115 40% 1 25.11.2026 -
Alan Velasco Boca Juniors Ativo 127 / 129 40% 3 23.11.2026 -
Percy Erasmus SuperSport United Ativo 127 / 135 40% 2 22.11.2026 -
Ammar Ramadan DAC Dunajska Streda Ativo 134 / 135 40% 1 22.11.2026 -
Salah Mohsen El Masry Ativo 121 / 109 40% 1 21.11.2026 -
Felipe Fernández Vorskla Ativo 95 / 104 40% 1 21.11.2026 -
Denis Bouanga Los Angeles Football Club Ativo 142 / 134 40% 1 20.11.2026 -
Yoshan Valois Lanús Ativo 114 / 115 40% 3 19.11.2026 -
Marco Pineda VfB Stuttgart Ativo 132 / 131 40% 5 19.11.2026 -
Facundo Suárez Instituto Perdido 130 / 114 40% 2 19.11.2026 -
Justin-Noël Kalumba Mallorca Ativo 111 / 111 40% 4 18.11.2026 -
Luciano Gondou CSKA Moscow Ativo 120 / 124 40% 1 18.11.2026 -
Dominik Baumgartner Mattersburg Ativo 102 / 117 40% 1 18.11.2026 -
Antoine Griezmann Orlando City Ativo 163 / 153 40% 4 16.11.2026 -
Ola Solbakken FC Nordsjaelland Ativo 131 / 121 40% 2 16.11.2026 -
Diego Valdés Vélez Ativo 137 / 134 40% 3 15.11.2026 -
Maximiliano Gómez Nacional Ativo 121 / 126 40% 1 14.11.2026 -
Guilherme Houston Dynamo Ativo 134 / 138 40% 3 13.11.2026 -
Achraf Bencharki Al Ahly Ativo 129 / 128 40% 1 13.11.2026 -
Bautista Arricau OB Ativo 93 / 104 40% 1 13.11.2026 -
Alejandro Valencia La Equidad Ativo 114 / 112 40% 1 12.11.2026 -
Jorge Benítez FCSB Ativo 97 / 119 40% 3 11.11.2026 -
Leandro Díaz Atlético Tucumán Ativo 128 / 129 40% 2 11.11.2026 -
Tamerlan Musaev CSKA Moscow Ativo 109 / 109 40% 1 10.11.2026 -
Álex Arce Independiente Rivadavia Ativo 132 / 125 40% 2 09.11.2026 -
Alexander Aravena Portland Timbers Ativo 116 / 115 40% 1 07.11.2026 -
Mandla Jali SuperSport United Ativo 111 / 108 40% 1 07.11.2026 -
Nahuel Galardi Maipú Ativo 116 / 106 40% 1 07.11.2026 -
Heorhii Yermakov Metalist Ativo 120 / 113 40% 1 07.11.2026 -
Darren Yapi Colorado Rapids Ativo 100 / 109 40% 1 05.11.2026 -
Alexander Díaz Deportivo Riestra Ativo 113 / 126 40% 1 04.11.2026 -
Jean-Luc Morin Tours Ativo 135 / 153 40% 1 04.11.2026 -
Haris Tabaković Red Bull Salzburg Ativo 143 / 136 40% 3 03.11.2026 Observar
James Sands New York City Ativo 124 / 122 40% 1 03.11.2026 -
Frans Krätzig Red Bull Salzburg Ativo 124 / 130 40% 1 03.11.2026 -
Felipe Peña Biafore Lanús Ativo 125 / 123 40% 1 03.11.2026 -
Pablo Rossi Halmstad Ativo 109 / 99 40% 1 31.10.2026 -
Tiago Pucciarelli FK Senica Ativo 96 / 106 40% 2 30.10.2026 -
Jhonatan Candia Barracas Central Ativo 127 / 120 40% 1 30.10.2026 -
Morgan Guilavogui Real Salt Lake Ativo 122 / 120 40% 1 30.10.2026 -
Cheikh Sabaly Vancouver Whitecaps Ativo 128 / 110 40% 1 30.10.2026 -
Naledi Hlongwane Victoria United Ativo 81 / 95 40% 1 30.10.2026 -
Jeff Ekhator Juventus Ativo 135 / 131 40% 1 30.10.2026 -
Evidence Makgopa Orlando Pirates Ativo 110 / 112 40% 1 28.10.2026 -
Brayan León Mamelodi Sundowns Ativo 111 / 129 40% 1 27.10.2026 -
Leo Ceara Kashima Antlers Ativo 144 / 137 40% 2 26.10.2026 -
Ola Brynhildsen Bodo/Glimt Ativo 133 / 135 40% 1 26.10.2026 -
Alexandru Dragusin Astra Ativo 105 / 97 40% 1 26.10.2026 -
Roman Celentano FC Cincinnati Ativo 125 / 116 40% 1 26.10.2026 -
Archie Goodwin Charlotte Football Club Ativo 95 / 106 40% 3 24.10.2026 -
Diego Valencia Gornik Leczna Ativo 116 / 97 40% 2 22.10.2026 -
Mohamed Salah Trabzonspor Ativo 179 / 175 40% 2 20.10.2026 -
Niklas Steffen Thun Ativo 116 / 109 40% 1 20.10.2026 -
Bogdan Ovsyannikov Orenburg Ativo 108 / 105 40% 1 20.10.2026 -
Kelvin Yeboah Minnesota United FC Ativo 118 / 127 40% 2 18.10.2026 -
Octavio Bianchi HNK Vukovar 1991 Ativo 113 / 115 40% 1 18.10.2026 -
Dejan Joveljić Seattle Sounders Ativo 136 / 119 40% 1 18.10.2026 -
Luca Langoni New England Revolution Ativo 120 / 141 40% 1 17.10.2026 -
Talisca Fenerbahce Ativo 134 / 129 40% 2 16.10.2026 -
Max Fenger IFK Goteborg Ativo 120 / 130 40% 1 16.10.2026 -
Felipe Mora San Luis Ativo 127 / 129 40% 3 15.10.2026 -
Joaquín Correa Estudiantes Ativo 137 / 135 40% 1 14.10.2026 -
Nicolás Cordero Aldosivi Ativo 124 / 113 40% 1 13.10.2026 -
Tadeo Allende Inter Miami CF Ativo 126 / 126 40% 2 12.10.2026 -
Ángel Correa River Plate Ativo 147 / 141 40% 1 11.10.2026 -
Martín Pino Antalyaspor Ativo 120 / 116 40% 2 10.10.2026 -
Germán Berterame Inter Miami CF Ativo 136 / 128 40% 1 09.10.2026 -
Facundo Castro Nueva Chicago Perdido 111 / 104 40% 1 06.10.2026 Mais informações
Justo Giani Universidad Catolica Ativo 118 / 123 40% 3 05.10.2026 -
Javier Correa Colo-Colo Ativo 119 / 122 40% 4 04.10.2026 -
Ignacio Russo Tigre Ativo 126 / 123 40% 1 04.10.2026 -
Arkaitz Mariezkurrena Real Sociedad Ativo 117 / 133 40% 1 04.10.2026 -
Juan Francisco Rossel Universidad Catolica Ativo 95 / 93 40% 1 04.10.2026 -
Keisuke Osako Sanfrecce Hiroshima Ativo 131 / 122 40% 1 04.10.2026 -
Matthieu Epolo Standard Liege Ativo 111 / 130 40% 1 04.10.2026 -
Răzvan Sava Universitatea Craiova Ativo 114 / 124 40% 1 04.10.2026 -
Luther Zwane Platinum Stars Ativo 111 / 99 40% 1 02.10.2026 -
Lucciano Reinoso Caracas Ativo 89 / 97 40% 1 02.10.2026 -
Sebastián Villa Boca Juniors Ativo 136 / 125 40% 1 30.09.2026 -
Dániel Gazdag Columbus Crew Ativo 133 / 134 40% 1 30.09.2026 -
Alasana Yirajang Slovan Bratislava Ativo 109 / 112 40% 1 29.09.2026 -
Ezekiel Kwame Alladoh Philadelphia Union Ativo 102 / 118 40% 1 28.09.2026 -
Michael Vadulli Audax Italiano Ativo 107 / 104 40% 2 26.09.2026 -
Jonás Acevedo Instituto Ativo 128 / 126 40% 1 26.09.2026 -
Cristian Techera River Plate Ativo 113 / 112 40% 1 24.09.2026 -
Joaquín Zeballos Wanderers Ativo 102 / 112 40% 1 24.09.2026 -
Diego Rossi Monterrey Ativo 143 / 121 40% 1 23.09.2026 -
Jonathan Rodríguez Besiktas Ativo 116 / 110 40% 1 23.09.2026 -
Diber Cambindo Leon Ativo 140 / 141 40% 2 22.09.2026 -
Cris Martínez Ativo 110 / 113 40% 2 22.09.2026 -
Ángel Sepúlveda Guadalajara Ativo 131 / 111 40% 2 21.09.2026 -
Rodrigo Aguirre Tigres Ativo 120 / 118 40% 2 21.09.2026 -
Ricardo Marín Guadalajara Ativo 120 / 119 40% 1 20.09.2026 -
Cesar Corona Veracruz Ativo 138 / 142 40% 2 19.09.2026 -
Juan Rocca Gimnasia y Tiro Ativo 110 / 108 40% 2 19.09.2026 -
Ruyery Blanco Alianza Petrolera Ativo 105 / 115 40% 1 19.09.2026 -
Luciano Cosentino Wanderers Ativo 123 / 118 40% 3 18.09.2026 -
Mousa Meunier KV Oostende Ativo 134 / 137 40% 1 18.09.2026 -
Duk Atlas Ativo 110 / 117 40% 1 18.09.2026 -
Dominik Takáč Slovan Bratislava Ativo 119 / 134 40% 1 18.09.2026 -
Sebastian Hernandez Cortulua Ativo 122 / 122 40% 1 18.09.2026 -
Diego Romero Universitario Ativo 116 / 118 40% 1 16.09.2026 Mais informações
Chris Brady Chicago Fire Perdido 127 / 128 40% 1 16.09.2026 -
Jhojan Julio Queretaro Ativo 122 / 118 40% 1 14.09.2026 -
Hugo Cuypers Monterrey Ativo 117 / 122 40% 1 14.09.2026 -
Alfredo Morelos Atletico Nacional Ativo 117 / 131 40% 2 13.09.2026 -
Wilfrido De La Rosa Jaguares Ativo 115 / 112 40% 1 13.09.2026 -
Edwar López Deportes Tolima Ativo 124 / 110 40% 2 12.09.2026 -
Taisei Miyashiro Seattle Sounders Ativo 126 / 135 40% 1 12.09.2026 -
Alex Valera Universitario Ativo 123 / 132 40% 2 11.09.2026 -
Jefry Zapata Once Caldas Ativo 115 / 112 40% 1 11.09.2026 -
Maicol Ferreira Danubio Ativo 110 / 106 40% 1 09.09.2026 -
Octavio Rivero Universidad de Chile Ativo 130 / 131 40% 1 09.09.2026 -
Nicolás Sosa Racing Ativo 110 / 107 40% 1 08.09.2026 -
Ismael Díaz Leon Ativo 118 / 127 40% 1 08.09.2026 -
Lucas Di Yorio Santos Laguna Ativo 125 / 123 40% 1 07.09.2026 -
Esteban da Silva Racing Ativo 114 / 114 40% 1 07.09.2026 -
Alejandro Piedrahita Deportivo Pereira Ativo 120 / 131 40% 1 06.09.2026 -
José Barreto Fehervar Ativo 108 / 122 40% 1 06.09.2026 -
Juan Martín Lucero Universidad de Chile Ativo 126 / 123 40% 3 04.09.2026 -
Michael Nike Patriotas Ativo 101 / 105 40% 1 04.09.2026 -
Anthony Lozano Santos Laguna Ativo 119 / 121 40% 2 03.09.2026 -
Álvaro Guevara Alianza Atletico Ativo 81 / 84 40% 1 01.09.2026 -
Kevin Méndez Union La Calera Ativo 115 / 104 40% 1 01.09.2026 -
Xavier Biscayzacú Defensor Sporting Ativo 122 / 128 40% 1 31.08.2026 -
Juan David Rueda Alianza Petrolera Ativo 102 / 113 40% 1 31.08.2026 -
Jorge Obregón Deportivo Pasto Ativo 116 / 120 40% 2 30.08.2026 -
Anderson Plata Ativo 119 / 104 40% 1 30.08.2026 -
Ozziel Herrera Tigres Ativo 134 / 129 40% 1 30.08.2026 -
Christian Ebere Cruz Azul Ativo 124 / 124 40% 1 27.08.2026 -
Andrés Rentería Jaguares Ativo 114 / 122 40% 1 27.08.2026 -
Nicolás Ibáñez Cruz Azul Ativo 126 / 127 40% 2 26.08.2026 -
Jáder Obrian Santa Fe Ativo 121 / 124 40% 1 22.08.2026 -
Juan Dinenno Pumas UNAM Ativo 133 / 123 40% 1 22.08.2026 -
Franco Troyansky Audax Italiano Ativo 103 / 101 40% 1 21.08.2026 -
Guillermo Paiva Junior Ativo 113 / 112 40% 1 21.08.2026 -
Luis Muriel Junior Ativo 119 / 118 40% 2 20.08.2026 -
Leandro Suhr Boston River Ativo 114 / 118 40% 1 20.08.2026 -
Jonathan Cañete Portuguesa Ativo 108 / 117 40% 1 20.08.2026 -
Inti López River Plate Ativo 87 / 97 40% 2 19.08.2026 -
Adrián Parra Deportes Tolima Ativo 118 / 119 40% 1 19.08.2026 -
Brian Montenegro Defensor Sporting Ativo 117 / 126 40% 1 18.08.2026 -
Maximiliano Rodríguez Huachipato Ativo 111 / 110 40% 1 16.08.2026 -
Michael Barrios Once Caldas Ativo 113 / 113 40% 1 16.08.2026 -
Florián Monzón Atlas Ativo 131 / 115 40% 1 14.08.2026 -
Lionel Altamirano Huachipato Ativo 111 / 108 40% 1 14.08.2026 -
Rodolfo Moreno Veracruz Ativo 95 / 108 40% 1 14.08.2026 -
Luciano Inverso Rentistas Ativo 113 / 124 40% 1 13.08.2026 -
Luis Palacios Tigres Ativo 103 / 106 40% 1 13.08.2026 -
Juan David Ruiz Leones Ativo 86 / 96 40% 1 13.08.2026 -
Emiliano Saliadarre Miramar Misiones Ativo 113 / 107 40% 1 10.08.2026 -
Matías Campos López Union La Calera Ativo 105 / 100 40% 1 09.08.2026 -
Nahuel Luján Sport Huancayo Ativo 108 / 107 40% 1 09.08.2026 -
David Fernández O'Higgins Ativo 112 / 109 40% 1 08.08.2026 -
Efraín Álvarez Guadalajara Ativo 119 / 138 40% 1 08.08.2026 -
Gaspar Gentile Alianza Lima Ativo 108 / 112 40% 1 08.08.2026 -
Gonzalo Carneiro Dinamo Zagreb Ativo 123 / 121 40% 1 07.08.2026 -
Ray Sandoval Cienciano Ativo 115 / 115 40% 1 05.08.2026 -
Federico Martínez Liverpool Montevideo Ativo 116 / 121 40% 1 05.08.2026 -
Danny Welbeck Chelsea Ativo 148 / 156 40% 1 05.08.2026 -
Miguel Borja Club America Ativo 117 / 114 40% 1 04.08.2026 -
Cecilio Waterman Fenix Ativo 109 / 110 40% 1 04.08.2026 -
Víctor Cabezas Union Magdalena Ativo 110 / 109 40% 1 02.08.2026 -
Carlos Moreno Pachuca Ativo 129 / 130 40% 1 02.08.2026 -